createdAt,value
2017-12-03T00:01:09.360Z,-3.58
2017-12-03T00:02:19.071Z,-3.53
2017-12-03T00:03:28.779Z,-3.48
2017-12-03T00:04:38.751Z,-3.53
2017-12-03T00:05:48.728Z,-3.53
2017-12-03T00:06:58.702Z,-3.47
2017-12-03T00:08:08.674Z,-3.46
2017-12-03T00:09:18.651Z,-3.5
2017-12-03T00:10:28.620Z,-3.48
2017-12-03T00:11:38.593Z,-3.48
2017-12-03T00:12:48.570Z,-3.46
2017-12-03T00:13:58.281Z,-3.41
2017-12-03T00:15:08.259Z,-3.43
2017-12-03T00:16:18.232Z,-3.43
2017-12-03T00:17:27.942Z,-3.37
2017-12-03T00:18:37.924Z,-3.38
2017-12-03T00:19:47.898Z,-3.25
2017-12-03T00:20:57.611Z,-3.27
2017-12-03T00:22:07.060Z,-3.19
2017-12-03T00:23:17.040Z,-3.17
2017-12-03T00:24:27.015Z,-3.17
2017-12-03T00:25:36.463Z,-3.15
2017-12-03T00:26:46.462Z,-3.15
2017-12-03T00:27:56.438Z,-3.14
2017-12-03T00:29:06.474Z,-3.19
2017-12-03T00:30:16.449Z,-3.27
2017-12-03T00:31:26.424Z,-3.37
2017-12-03T00:32:36.399Z,-3.33
2017-12-03T00:33:46.378Z,-3.38
2017-12-03T00:34:56.362Z,-3.43
2017-12-03T00:36:06.339Z,-3.55
2017-12-03T00:37:16.312Z,-3.61
2017-12-03T00:38:26.290Z,-3.62
2017-12-03T00:39:36.014Z,-3.65
2017-12-03T00:40:45.724Z,-3.64
2017-12-03T00:41:55.699Z,-3.53
2017-12-03T00:43:05.676Z,-3.55
2017-12-03T00:44:15.670Z,-3.59
2017-12-03T00:45:25.652Z,-3.58
2017-12-03T00:46:35.636Z,-3.47
2017-12-03T00:47:45.613Z,-3.47
2017-12-03T00:48:55.592Z,-3.44
2017-12-03T00:50:05.042Z,-3.46
2017-12-03T00:51:15.015Z,-3.4
2017-12-03T00:52:24.737Z,-3.36
2017-12-03T00:53:34.441Z,-3.37
2017-12-03T00:54:43.897Z,-3.4
2017-12-03T00:55:53.872Z,-3.46
2017-12-03T00:57:03.855Z,-3.47
2017-12-03T00:58:13.574Z,-3.48
2017-12-03T00:59:23.549Z,-3.47
2017-12-03T01:00:33.521Z,-3.61
2017-12-03T01:01:43.500Z,-3.77
2017-12-03T01:02:53.494Z,-3.9
2017-12-03T01:04:03.475Z,-3.84
2017-12-03T01:05:13.459Z,-3.84
2017-12-03T01:06:23.170Z,-3.88
2017-12-03T01:07:32.878Z,-3.9
2017-12-03T01:08:42.856Z,-3.88
2017-12-03T01:09:52.603Z,-3.88
2017-12-03T01:11:02.593Z,-3.84
2017-12-03T01:12:12.568Z,-3.91
2017-12-03T01:13:22.277Z,-3.83
2017-12-03T01:14:31.742Z,-3.9
2017-12-03T01:15:41.505Z,-3.8
2017-12-03T01:16:51.495Z,-3.91
2017-12-03T01:18:01.472Z,-3.84
2017-12-03T01:19:11.185Z,-3.85
2017-12-03T01:20:21.193Z,-3.87
2017-12-03T01:21:31.170Z,-3.85
2017-12-03T01:22:40.898Z,-3.77
2017-12-03T01:23:50.883Z,-3.66
2017-12-03T01:25:00.865Z,-3.69
2017-12-03T01:26:10.052Z,-3.69
2017-12-03T01:27:20.039Z,-3.71
2017-12-03T01:28:29.767Z,-3.69
2017-12-03T01:29:39.754Z,-3.71
2017-12-03T01:30:49.482Z,-3.74
2017-12-03T01:31:59.462Z,-3.69
2017-12-03T01:33:09.442Z,-3.68
2017-12-03T01:34:19.424Z,-3.68
2017-12-03T01:35:29.404Z,-3.71
2017-12-03T01:36:39.383Z,-3.71
2017-12-03T01:37:49.373Z,-3.68
2017-12-03T01:38:59.361Z,-3.64
2017-12-03T01:40:08.817Z,-3.65
2017-12-03T01:41:18.807Z,-3.59
2017-12-03T01:42:28.525Z,-3.53
2017-12-03T01:43:37.979Z,-3.62
2017-12-03T01:44:47.692Z,-3.59
2017-12-03T01:45:57.139Z,-3.44
2017-12-03T01:47:07.160Z,-3.22
2017-12-03T01:48:17.143Z,-3.2
2017-12-03T01:49:27.120Z,-3.01
2017-12-03T01:50:37.097Z,-2.78
2017-12-03T01:51:47.079Z,-2.7
2017-12-03T01:52:57.072Z,-2.73
2017-12-03T01:54:07.090Z,-2.87
2017-12-03T01:55:17.076Z,-2.87
2017-12-03T01:56:27.059Z,-3.12
2017-12-03T01:57:37.057Z,-3.3
2017-12-03T01:58:47.040Z,-3.46
2017-12-03T01:59:57.020Z,-3.47
2017-12-03T02:01:06.740Z,-3.4
2017-12-03T02:02:16.459Z,-3.43
2017-12-03T02:03:26.448Z,-3.47
2017-12-03T02:04:36.427Z,-3.58
2017-12-03T02:05:46.409Z,-3.58
2017-12-03T02:06:56.392Z,-3.68
2017-12-03T02:08:06.383Z,-3.74
2017-12-03T02:09:16.364Z,-3.83
2017-12-03T02:10:26.386Z,-3.85
2017-12-03T02:11:36.368Z,-3.84
2017-12-03T02:12:46.355Z,-4.01
2017-12-03T02:13:56.340Z,-3.91
2017-12-03T02:15:05.793Z,-4.02
2017-12-03T02:16:15.822Z,-3.91
2017-12-03T02:17:25.535Z,-4.04
2017-12-03T02:18:35.509Z,-3.94
2017-12-03T02:19:45.494Z,-4.04
2017-12-03T02:20:55.213Z,-3.96
2017-12-03T02:22:05.198Z,-3.85
2017-12-03T02:23:14.907Z,-3.9
2017-12-03T02:24:24.915Z,-3.96
2017-12-03T02:25:34.916Z,-3.91
2017-12-03T02:26:44.367Z,-3.88
2017-12-03T02:27:54.345Z,-3.85
2017-12-03T02:29:04.325Z,-3.75
2017-12-03T02:30:14.301Z,-3.74
2017-12-03T02:31:24.282Z,-3.9
2017-12-03T02:32:34.002Z,-3.78
2017-12-03T02:33:43.989Z,-3.77
2017-12-03T02:34:53.982Z,-3.88
2017-12-03T02:36:03.427Z,-3.81
2017-12-03T02:37:13.142Z,-3.66
2017-12-03T02:38:23.125Z,-3.68
2017-12-03T02:39:33.110Z,-3.8
2017-12-03T02:40:42.830Z,-3.74
2017-12-03T02:41:52.815Z,-3.68
2017-12-03T02:43:02.800Z,-3.71
2017-12-03T02:44:12.795Z,-3.66
2017-12-03T02:45:22.779Z,-3.75
2017-12-03T02:46:34.765Z,-3.81
2017-12-03T02:47:44.215Z,-3.78
2017-12-03T02:48:54.200Z,-3.74
2017-12-03T02:50:03.924Z,-3.68
2017-12-03T02:51:13.644Z,-3.75
2017-12-03T02:52:23.630Z,-3.74
2017-12-03T02:53:33.620Z,-3.75
2017-12-03T02:54:43.612Z,-3.66
2017-12-03T02:55:53.075Z,-3.8
2017-12-03T02:57:03.064Z,-3.77
2017-12-03T02:58:13.046Z,-3.75
2017-12-03T02:59:23.035Z,-3.88
2017-12-03T03:00:32.486Z,-3.77
2017-12-03T03:01:42.463Z,-3.9
2017-12-03T03:02:52.441Z,-3.81
2017-12-03T03:04:02.471Z,-3.87
2017-12-03T03:05:12.183Z,-3.8
2017-12-03T03:06:21.896Z,-3.81
2017-12-03T03:07:31.874Z,-3.77
2017-12-03T03:08:41.858Z,-3.75
2017-12-03T03:09:54.139Z,-3.77
2017-12-03T03:11:04.118Z,-3.8
2017-12-03T03:12:14.099Z,-3.69
2017-12-03T03:13:24.077Z,-3.78
2017-12-03T03:14:34.049Z,-3.85
2017-12-03T03:15:44.042Z,-3.78
2017-12-03T03:16:54.033Z,-3.81
2017-12-03T03:18:04.021Z,-3.84
2017-12-03T03:19:14.015Z,-3.9
2017-12-03T03:20:23.995Z,-3.88
2017-12-03T03:21:37.469Z,-3.91
2017-12-03T03:22:46.922Z,-3.85
2017-12-03T03:23:56.907Z,-3.85
2017-12-03T03:25:06.888Z,-3.91
2017-12-03T03:26:16.867Z,-3.85
2017-12-03T03:27:26.851Z,-3.84
2017-12-03T03:28:36.832Z,-3.95
2017-12-03T03:29:46.816Z,-3.96
2017-12-03T03:30:56.297Z,-3.96
2017-12-03T03:32:06.018Z,-3.96
2017-12-03T03:33:15.731Z,-3.96
2017-12-03T03:34:25.703Z,-3.94
2017-12-03T03:35:35.680Z,-4.01
2017-12-03T03:36:45.656Z,-4.09
2017-12-03T03:37:55.636Z,-4.09
2017-12-03T03:39:05.616Z,-4.19
2017-12-03T03:40:15.604Z,-4.16
2017-12-03T03:41:25.323Z,-4.19
2017-12-03T03:42:35.035Z,-4.31
2017-12-03T03:43:45.018Z,-4.4
2017-12-03T03:44:55.003Z,-4.41
2017-12-03T03:46:04.983Z,-4.58
2017-12-03T03:47:14.967Z,-4.52
2017-12-03T03:48:24.943Z,-4.53
2017-12-03T03:49:34.657Z,-4.52
2017-12-03T03:50:44.369Z,-4.58
2017-12-03T03:51:54.082Z,-4.61
2017-12-03T03:53:03.806Z,-4.61
2017-12-03T03:54:13.792Z,-4.65
2017-12-03T03:55:23.771Z,-4.74
2017-12-03T03:56:33.745Z,-4.61
2017-12-03T03:57:43.726Z,-4.63
2017-12-03T03:58:53.721Z,-4.62
2017-12-03T04:00:03.700Z,-4.56
2017-12-03T04:03:45.716Z,-4.71
2017-12-03T04:04:55.747Z,-4.7
2017-12-03T04:06:05.733Z,-4.74
2017-12-03T04:07:15.723Z,-4.76
2017-12-03T04:08:25.703Z,-4.74
2017-12-03T04:09:35.723Z,-4.88
2017-12-03T04:10:45.700Z,-4.92
2017-12-03T04:11:55.689Z,-4.97
2017-12-03T04:13:05.674Z,-4.91
2017-12-03T04:14:15.650Z,-4.94
2017-12-03T04:15:25.359Z,-4.94
2017-12-03T04:16:35.071Z,-4.92
2017-12-03T04:17:45.047Z,-4.98
2017-12-03T04:18:54.759Z,-4.97
2017-12-03T04:20:04.744Z,-4.98
2017-12-03T04:21:14.458Z,-5.05
2017-12-03T04:22:24.434Z,-4.98
2017-12-03T04:23:34.410Z,-5.02
2017-12-03T04:24:44.389Z,-4.98
2017-12-03T04:25:54.368Z,-4.94
2017-12-03T04:27:04.090Z,-5.01
2017-12-03T04:28:13.802Z,-4.94
2017-12-03T04:29:23.514Z,-4.91
2017-12-03T04:30:33.563Z,-5.09
2017-12-03T04:31:43.550Z,-5.01
2017-12-03T04:32:53.574Z,-5.02
2017-12-03T04:34:03.552Z,-5.01
2017-12-03T04:35:13.534Z,-5.08
2017-12-03T04:36:23.513Z,-5.2
2017-12-03T04:37:33.489Z,-5.25
2017-12-03T04:38:43.468Z,-5.2
2017-12-03T04:39:53.447Z,-5.19
2017-12-03T04:41:03.425Z,-5.23
2017-12-03T04:42:13.407Z,-5.17
2017-12-03T04:43:23.433Z,-5.12
2017-12-03T04:44:33.414Z,-5.09
2017-12-03T04:45:43.395Z,-5.25
2017-12-03T04:46:53.110Z,-5.38
2017-12-03T04:48:03.094Z,-5.45
2017-12-03T04:49:12.805Z,-5.5
2017-12-03T04:50:22.787Z,-5.39
2017-12-03T04:51:32.764Z,-5.35
2017-12-03T04:52:42.751Z,-5.45
2017-12-03T04:53:52.465Z,-5.6
2017-12-03T04:55:02.179Z,-5.7
2017-12-03T04:56:11.942Z,-5.78
2017-12-03T04:57:21.657Z,-5.84
2017-12-03T04:58:31.645Z,-5.87
2017-12-03T04:59:41.619Z,-5.89
2017-12-03T05:00:51.601Z,-5.87
2017-12-03T05:02:01.572Z,-5.97
2017-12-03T05:03:11.556Z,-6.02
2017-12-03T05:04:21.282Z,-6.07
2017-12-03T05:05:31.262Z,-6.03
2017-12-03T05:06:41.238Z,-5.89
2017-12-03T05:07:51.216Z,-5.92
2017-12-03T05:09:01.196Z,-5.85
2017-12-03T05:10:10.910Z,-5.84
2017-12-03T05:11:20.889Z,-5.84
2017-12-03T05:12:30.601Z,-5.76
2017-12-03T05:13:40.571Z,-5.66
2017-12-03T05:14:50.285Z,-5.55
2017-12-03T05:16:00.260Z,-5.39
2017-12-03T05:17:09.974Z,-5.41
2017-12-03T05:18:19.688Z,-5.45
2017-12-03T05:19:29.660Z,-5.39
2017-12-03T05:20:39.636Z,-5.52
2017-12-03T05:21:49.614Z,-5.48
2017-12-03T05:22:59.325Z,-5.49
2017-12-03T05:24:08.777Z,-5.55
2017-12-03T05:25:18.756Z,-5.39
2017-12-03T05:26:28.737Z,-5.16
2017-12-03T05:27:38.714Z,-5.01
2017-12-03T05:28:48.697Z,-4.77
2017-12-03T05:29:58.686Z,-4.55
2017-12-03T05:31:08.144Z,-4.44
2017-12-03T05:32:18.125Z,-4.44
2017-12-03T05:33:28.111Z,-4.4
2017-12-03T05:34:38.087Z,-4.41
2017-12-03T05:35:48.064Z,-4.44
2017-12-03T05:36:57.775Z,-4.42
2017-12-03T05:38:07.782Z,-4.33
2017-12-03T05:39:17.491Z,-4.3
2017-12-03T05:40:27.246Z,-4.34
2017-12-03T05:41:37.220Z,-4.31
2017-12-03T05:42:46.934Z,-4.31
2017-12-03T05:43:56.655Z,-4.31
2017-12-03T05:45:06.643Z,-4.38
2017-12-03T05:46:16.619Z,-4.52
2017-12-03T05:47:26.598Z,-4.62
2017-12-03T05:48:36.589Z,-4.61
2017-12-03T05:49:46.566Z,-4.63
2017-12-03T05:50:56.542Z,-4.77
2017-12-03T05:52:06.252Z,-4.63
2017-12-03T05:53:16.229Z,-4.67
2017-12-03T05:54:26.212Z,-4.63
2017-12-03T05:55:36.185Z,-4.56
2017-12-03T05:56:45.897Z,-4.4
2017-12-03T05:57:55.879Z,-4.33
2017-12-03T05:59:05.592Z,-4.26
2017-12-03T06:00:15.303Z,-4.26
2017-12-03T06:01:25.294Z,-4.14
2017-12-03T06:02:35.267Z,-4.17
2017-12-03T06:03:45.249Z,-4.24
2017-12-03T06:04:55.232Z,-4.27
2017-12-03T06:06:05.222Z,-4.44
2017-12-03T06:07:14.979Z,-4.56
2017-12-03T06:08:24.954Z,-4.52
2017-12-03T06:09:34.937Z,-4.53
2017-12-03T06:10:44.915Z,-4.63
2017-12-03T06:11:54.897Z,-4.61
2017-12-03T06:13:04.609Z,-4.56
2017-12-03T06:14:14.057Z,-4.59
2017-12-03T06:15:24.050Z,-4.58
2017-12-03T06:16:34.024Z,-4.63
2017-12-03T06:17:44.003Z,-4.8
2017-12-03T06:18:53.977Z,-4.8
2017-12-03T06:20:03.960Z,-4.81
2017-12-03T06:21:13.946Z,-4.87
2017-12-03T06:22:23.921Z,-4.83
2017-12-03T06:23:33.906Z,-4.83
2017-12-03T06:24:43.889Z,-4.9
2017-12-03T06:25:53.866Z,-4.88
2017-12-03T06:27:03.850Z,-4.9
2017-12-03T06:28:13.832Z,-5
2017-12-03T06:29:23.548Z,-5.05
2017-12-03T06:30:33.262Z,-5.02
2017-12-03T06:31:43.240Z,-4.98
2017-12-03T06:32:53.228Z,-4.9
2017-12-03T06:34:03.207Z,-4.98
2017-12-03T06:35:12.921Z,-4.91
2017-12-03T06:36:22.897Z,-5.09
2017-12-03T06:37:32.870Z,-5.1
2017-12-03T06:38:42.851Z,-5.01
2017-12-03T06:39:52.835Z,-5.06
2017-12-03T06:41:02.820Z,-4.98
2017-12-03T06:42:12.544Z,-5.05
2017-12-03T06:43:22.527Z,-4.94
2017-12-03T06:44:32.515Z,-4.91
2017-12-03T06:45:42.225Z,-4.91
2017-12-03T06:46:52.205Z,-4.87
2017-12-03T06:48:02.182Z,-4.81
2017-12-03T06:49:11.894Z,-4.83
2017-12-03T06:50:21.877Z,-4.74
2017-12-03T06:51:31.589Z,-4.74
2017-12-03T06:52:41.301Z,-4.81
2017-12-03T06:53:51.278Z,-4.73
2017-12-03T06:55:01.260Z,-4.73
2017-12-03T06:56:11.263Z,-4.69
2017-12-03T06:57:21.253Z,-4.69
2017-12-03T06:58:31.235Z,-4.8
2017-12-03T06:59:40.950Z,-4.9
2017-12-03T07:00:50.664Z,-4.84
2017-12-03T07:02:00.664Z,-4.87
2017-12-03T07:03:10.658Z,-4.74
2017-12-03T07:04:20.645Z,-4.71
2017-12-03T07:05:30.642Z,-4.73
2017-12-03T07:06:40.617Z,-4.87
2017-12-03T07:07:50.593Z,-4.81
2017-12-03T07:09:00.576Z,-4.83
2017-12-03T07:10:10.553Z,-4.94
2017-12-03T07:11:20.541Z,-4.94
2017-12-03T07:12:30.516Z,-4.92
2017-12-03T07:13:40.535Z,-4.94
2017-12-03T07:14:50.512Z,-4.9
2017-12-03T07:16:00.492Z,-4.97
2017-12-03T07:17:10.480Z,-5.13
2017-12-03T07:18:20.465Z,-5.13
2017-12-03T07:19:30.438Z,-5.25
2017-12-03T07:20:40.420Z,-5.21
2017-12-03T07:21:50.401Z,-5.25
2017-12-03T07:23:00.125Z,-5.31
2017-12-03T07:24:09.306Z,-5.38
2017-12-03T07:25:19.288Z,-5.43
2017-12-03T07:26:29.278Z,-5.35
2017-12-03T07:27:39.263Z,-5.43
2017-12-03T07:28:49.019Z,-5.56
2017-12-03T07:29:58.993Z,-5.5
2017-12-03T07:31:08.446Z,-5.39
2017-12-03T07:32:18.198Z,-5.5
2017-12-03T07:33:28.177Z,-5.5
2017-12-03T07:34:37.886Z,-5.53
2017-12-03T07:35:47.865Z,-5.5
2017-12-03T07:36:57.845Z,-5.53
2017-12-03T07:38:07.560Z,-5.52
2017-12-03T07:39:17.537Z,-5.55
2017-12-03T07:40:27.257Z,-5.58
2017-12-03T07:41:37.251Z,-5.59
2017-12-03T07:42:47.234Z,-5.68
2017-12-03T07:43:57.212Z,-5.68
2017-12-03T07:45:07.195Z,-5.71
2017-12-03T07:46:17.174Z,-5.71
2017-12-03T07:47:27.151Z,-5.52
2017-12-03T07:48:36.863Z,-5.46
2017-12-03T07:49:46.849Z,-5.52
2017-12-03T07:50:56.834Z,-5.53
2017-12-03T07:52:06.545Z,-5.59
2017-12-03T07:53:16.527Z,-5.63
2017-12-03T07:54:26.501Z,-5.66
2017-12-03T07:55:36.479Z,-5.71
2017-12-03T07:56:45.924Z,-5.66
2017-12-03T07:57:55.931Z,-5.66
2017-12-03T07:59:05.941Z,-5.74
2017-12-03T08:00:15.925Z,-5.76
2017-12-03T08:01:25.904Z,-5.6
2017-12-03T08:02:35.888Z,-5.84
2017-12-03T08:03:45.877Z,-5.77
2017-12-03T08:04:55.594Z,-5.74
2017-12-03T08:06:05.317Z,-5.78
2017-12-03T08:07:15.291Z,-5.78
2017-12-03T08:08:25.270Z,-5.84
2017-12-03T08:09:35.242Z,-5.85
2017-12-03T08:10:45.001Z,-5.89
2017-12-03T08:11:54.977Z,-5.77
2017-12-03T08:13:04.955Z,-5.81
2017-12-03T08:14:14.665Z,-5.91
2017-12-03T08:15:24.380Z,-5.94
2017-12-03T08:16:34.368Z,-5.89
2017-12-03T08:17:44.345Z,-5.85
2017-12-03T08:18:54.327Z,-5.91
2017-12-03T08:20:04.302Z,-5.74
2017-12-03T08:21:14.011Z,-5.85
2017-12-03T08:22:23.725Z,-5.77
2017-12-03T08:23:33.711Z,-5.66
2017-12-03T08:24:43.697Z,-5.7
2017-12-03T08:25:53.408Z,-5.74
2017-12-03T08:27:03.435Z,-5.66
2017-12-03T08:28:13.149Z,-5.6
2017-12-03T08:29:23.138Z,-5.55
2017-12-03T08:30:33.126Z,-5.48
2017-12-03T08:31:43.105Z,-5.46
2017-12-03T08:32:53.084Z,-5.43
2017-12-03T08:34:03.066Z,-5.31
2017-12-03T08:35:13.044Z,-5.35
2017-12-03T08:36:23.020Z,-5.35
2017-12-03T08:37:33.011Z,-5.31
2017-12-03T08:38:42.984Z,-5.31
2017-12-03T08:39:52.963Z,-5.17
2017-12-03T08:41:02.951Z,-5.13
2017-12-03T08:42:12.664Z,-5.1
2017-12-03T08:43:22.427Z,-4.8
2017-12-03T08:44:32.408Z,-4.62
2017-12-03T08:45:42.391Z,-4.49
2017-12-03T08:46:51.840Z,-4.34
2017-12-03T08:48:01.554Z,-4.13
2017-12-03T08:49:11.305Z,-3.98
2017-12-03T08:50:21.320Z,-3.88
2017-12-03T08:51:31.295Z,-3.59
2017-12-03T08:52:41.271Z,-3.48
2017-12-03T08:53:51.267Z,-3.37
2017-12-03T08:55:00.980Z,-3.26
2017-12-03T08:56:10.962Z,-3.08
2017-12-03T08:57:20.939Z,-3.14
2017-12-03T08:58:30.652Z,-3.08
2017-12-03T08:59:40.634Z,-3.15
2017-12-03T09:00:50.414Z,-3.08
2017-12-03T09:02:00.127Z,-3.2
2017-12-03T09:03:09.846Z,-3.17
2017-12-03T09:04:19.567Z,-3.22
2017-12-03T09:05:29.542Z,-3.26
2017-12-03T09:06:39.530Z,-3.27
2017-12-03T09:07:49.252Z,-3.27
2017-12-03T09:08:59.232Z,-3.29
2017-12-03T09:10:08.960Z,-3.25
2017-12-03T09:11:18.941Z,-3.25
2017-12-03T09:12:28.924Z,-3.2
2017-12-03T09:13:38.905Z,-3.36
2017-12-03T09:14:48.884Z,-3.4
2017-12-03T09:15:58.869Z,-3.38
2017-12-03T09:17:08.854Z,-3.44
2017-12-03T09:18:18.836Z,-3.46
2017-12-03T09:19:28.813Z,-3.41
2017-12-03T09:20:38.524Z,-3.47
2017-12-03T09:21:48.257Z,-3.43
2017-12-03T09:22:58.297Z,-3.41
2017-12-03T09:24:08.279Z,-3.44
2017-12-03T09:25:17.997Z,-3.37
2017-12-03T09:26:27.983Z,-3.46
2017-12-03T09:27:37.695Z,-3.43
2017-12-03T09:28:47.672Z,-3.3
2017-12-03T09:29:57.659Z,-3.27
2017-12-03T09:31:07.655Z,-3.11
2017-12-03T09:32:17.641Z,-3.12
2017-12-03T09:33:27.621Z,-3.12
2017-12-03T09:34:37.600Z,-3.11
2017-12-03T09:35:47.581Z,-2.96
2017-12-03T09:36:57.034Z,-2.81
2017-12-03T09:38:06.215Z,-2.73
2017-12-03T09:39:15.927Z,-2.65
2017-12-03T09:40:25.906Z,-2.58
2017-12-03T09:41:35.900Z,-2.66
2017-12-03T09:42:45.882Z,-2.7
2017-12-03T09:43:55.867Z,-2.68
2017-12-03T09:45:05.583Z,-2.8
2017-12-03T09:46:15.565Z,-2.94
2017-12-03T09:47:25.541Z,-2.98
2017-12-03T09:48:35.522Z,-3.01
2017-12-03T09:49:44.970Z,-3.08
2017-12-03T09:50:54.964Z,-3.11
2017-12-03T09:52:04.943Z,-3.01
2017-12-03T09:53:14.390Z,-2.89
2017-12-03T09:54:24.372Z,-2.66
2017-12-03T09:55:34.350Z,-2.62
2017-12-03T09:56:44.343Z,-2.5
2017-12-03T09:57:54.325Z,-2.4
2017-12-03T09:59:04.311Z,-2.34
2017-12-03T10:00:13.766Z,-2.39
2017-12-03T10:01:23.748Z,-2.29
2017-12-03T10:02:33.733Z,-2.26
2017-12-03T10:03:43.717Z,-2.28
2017-12-03T10:04:53.692Z,-2.37
2017-12-03T10:06:03.669Z,-2.36
2017-12-03T10:07:13.649Z,-2.36
2017-12-03T10:08:23.628Z,-2.42
2017-12-03T10:09:33.079Z,-2.5
2017-12-03T10:10:43.053Z,-2.33
2017-12-03T10:11:52.513Z,-2.34
2017-12-03T10:13:02.499Z,-2.4
2017-12-03T10:14:11.959Z,-2.37
2017-12-03T10:15:21.972Z,-2.37
2017-12-03T10:16:31.950Z,-2.42
2017-12-03T10:17:41.935Z,-2.51
2017-12-03T10:18:51.917Z,-2.5
2017-12-03T10:20:01.933Z,-2.52
2017-12-03T10:21:11.653Z,-2.52
2017-12-03T10:22:21.641Z,-2.45
2017-12-03T10:23:31.359Z,-2.52
2017-12-03T10:24:41.340Z,-2.54
2017-12-03T10:25:51.318Z,-2.55
2017-12-03T10:27:01.299Z,-2.45
2017-12-03T10:28:11.016Z,-2.36
2017-12-03T10:29:21.013Z,-2.23
2017-12-03T10:30:30.997Z,-2.02
2017-12-03T10:31:40.979Z,-1.9
2017-12-03T10:32:50.964Z,-1.75
2017-12-03T10:34:00.680Z,-1.64
2017-12-03T10:35:10.669Z,-1.42
2017-12-03T10:36:20.388Z,-1.27
2017-12-03T10:37:30.371Z,-1.19
2017-12-03T10:38:40.352Z,-1.11
2017-12-03T10:39:50.334Z,-1.32
2017-12-03T10:41:00.051Z,-1.46
2017-12-03T10:42:09.521Z,-1.4
2017-12-03T10:43:19.521Z,-1.46
2017-12-03T10:44:29.515Z,-1.46
2017-12-03T10:45:39.283Z,-1.57
2017-12-03T10:46:49.011Z,-1.68
2017-12-03T10:47:58.731Z,-1.89
2017-12-03T10:49:08.180Z,-2.02
2017-12-03T10:50:18.166Z,-2.2
2017-12-03T10:51:28.153Z,-2.32
2017-12-03T10:52:37.919Z,-2.39
2017-12-03T10:53:47.651Z,-2.39
2017-12-03T10:54:57.371Z,-2.36
2017-12-03T10:56:06.827Z,-2.34
2017-12-03T10:57:16.807Z,-2.28
2017-12-03T10:58:26.527Z,-2.23
2017-12-03T10:59:36.517Z,-1.97
2017-12-03T11:00:46.502Z,-1.71
2017-12-03T11:01:56.218Z,-1.42
2017-12-03T11:03:06.209Z,-1.35
2017-12-03T11:04:16.237Z,-1
2017-12-03T11:05:25.955Z,-0.78
2017-12-03T11:06:35.941Z,-0.49
2017-12-03T11:07:45.656Z,-0.33
2017-12-03T11:08:55.378Z,-0.09
2017-12-03T11:10:05.096Z,0
2017-12-03T11:11:15.084Z,0.2
2017-12-03T11:12:24.805Z,0.16
2017-12-03T11:13:34.787Z,0.26
2017-12-03T11:14:44.506Z,0.33
2017-12-03T11:15:54.233Z,0.49
2017-12-03T11:17:04.217Z,0.84
2017-12-03T11:18:13.939Z,1.13
2017-12-03T11:19:23.922Z,1.38
2017-12-03T11:20:33.906Z,1.61
2017-12-03T11:21:43.888Z,2
2017-12-03T11:22:53.877Z,2.19
2017-12-03T11:24:03.616Z,2.39
2017-12-03T11:25:13.612Z,2.72
2017-12-03T11:26:23.068Z,2.7
2017-12-03T11:27:33.134Z,2.91
2017-12-03T11:28:43.127Z,3.05
2017-12-03T11:29:52.849Z,3.18
2017-12-03T11:31:02.838Z,3.43
2017-12-03T11:32:14.825Z,3.7
2017-12-03T11:33:24.815Z,3.68
2017-12-03T11:34:34.805Z,3.77
2017-12-03T11:35:44.278Z,3.95
2017-12-03T11:36:54.282Z,3.96
2017-12-03T11:38:04.276Z,4.16
2017-12-03T11:39:14.284Z,4.31
2017-12-03T11:40:23.753Z,4.36
2017-12-03T11:41:33.748Z,4.43
2017-12-03T11:42:43.736Z,4.24
2017-12-03T11:43:53.726Z,4
2017-12-03T11:45:03.783Z,4.07
2017-12-03T11:46:13.771Z,4.04
2017-12-03T11:47:23.755Z,4.27
2017-12-03T11:48:33.480Z,4.56
2017-12-03T11:49:43.470Z,4.64
2017-12-03T11:50:53.464Z,4.76
2017-12-03T11:52:03.189Z,4.94
2017-12-03T11:53:13.182Z,5.2
2017-12-03T11:54:23.171Z,5.36
2017-12-03T11:55:33.160Z,5.56
2017-12-03T11:56:43.148Z,5.65
2017-12-03T11:57:52.881Z,5.76
2017-12-03T11:59:02.880Z,5.74
2017-12-03T12:00:12.607Z,5.72
2017-12-03T12:01:22.331Z,5.91
2017-12-03T12:02:32.322Z,5.95
2017-12-03T12:03:42.313Z,5.94
2017-12-03T12:04:52.319Z,5.83
2017-12-03T12:06:02.051Z,5.87
2017-12-03T12:07:12.038Z,5.98
2017-12-03T12:08:21.766Z,6.13
2017-12-03T12:09:31.488Z,6.1
2017-12-03T12:10:41.480Z,6.05
2017-12-03T12:11:50.943Z,6.25
2017-12-03T12:13:00.933Z,6.29
2017-12-03T12:14:10.932Z,6.17
2017-12-03T12:15:20.658Z,6.28
2017-12-03T12:16:30.400Z,6.46
2017-12-03T12:17:40.448Z,6.39
2017-12-03T12:18:50.177Z,6.46
2017-12-03T12:20:00.172Z,6.64
2017-12-03T12:21:09.372Z,6.71
2017-12-03T12:22:19.406Z,6.68
2017-12-03T12:23:28.876Z,6.75
2017-12-03T12:24:38.870Z,6.65
2017-12-03T12:25:48.597Z,6.47
2017-12-03T12:26:58.592Z,6.49
2017-12-03T12:28:08.328Z,6.38
2017-12-03T12:29:18.056Z,6.13
2017-12-03T12:30:31.514Z,6.15
2017-12-03T12:31:41.501Z,6.15
2017-12-03T12:32:51.489Z,6.35
2017-12-03T12:34:01.224Z,5.33
2017-12-03T12:35:10.964Z,5.26
2017-12-03T12:36:20.967Z,5.4
2017-12-03T12:37:30.968Z,5.58
2017-12-03T12:38:40.700Z,5.58
2017-12-03T12:39:50.695Z,5.52
2017-12-03T12:41:00.697Z,5.2
2017-12-03T12:42:10.697Z,5
2017-12-03T12:43:20.688Z,5.01
2017-12-03T12:44:30.422Z,5.02
2017-12-03T12:45:40.418Z,4.97
2017-12-03T12:46:50.409Z,5.02
2017-12-03T12:48:00.412Z,5.12
2017-12-03T12:49:10.440Z,4.97
2017-12-03T12:50:20.427Z,4.12
2017-12-03T12:51:30.423Z,3.59
2017-12-03T12:52:40.426Z,3.36
2017-12-03T12:53:50.415Z,3.41
2017-12-03T12:55:00.404Z,3.43
2017-12-03T12:56:10.416Z,3.55
2017-12-03T12:57:20.145Z,3.76
2017-12-03T12:58:29.867Z,4.03
2017-12-03T12:59:39.859Z,4.21
2017-12-03T13:00:49.846Z,4.38
2017-12-03T13:01:59.837Z,4.43
2017-12-03T13:03:09.828Z,4.53
2017-12-03T13:04:19.599Z,4.43
2017-12-03T13:05:29.321Z,4.34
2017-12-03T13:06:39.322Z,4.04
2017-12-03T13:07:49.332Z,3.74
2017-12-03T13:08:59.058Z,3.09
2017-12-03T13:10:08.800Z,2.59
2017-12-03T13:11:18.813Z,2.5
2017-12-03T13:12:28.818Z,2.19
2017-12-03T13:13:38.547Z,1.93
2017-12-03T13:14:48.278Z,1.84
2017-12-03T13:15:58.000Z,1.84
2017-12-03T13:17:07.731Z,1.71
2017-12-03T13:18:17.460Z,1.68
2017-12-03T13:19:27.444Z,1.66
2017-12-03T13:20:36.902Z,1.64
2017-12-03T13:21:46.622Z,1.45
2017-12-03T13:22:56.344Z,1.43
2017-12-03T13:24:06.071Z,1.36
2017-12-03T13:25:15.789Z,1.21
2017-12-03T13:26:25.510Z,0.88
2017-12-03T13:27:35.235Z,0.67
2017-12-03T13:28:45.273Z,0.51
2017-12-03T13:29:54.994Z,0.44
2017-12-03T13:31:04.981Z,0.3
2017-12-03T13:32:14.972Z,0.08
2017-12-03T13:33:24.694Z,-0.02
2017-12-03T13:34:34.683Z,-0.17
2017-12-03T13:35:44.678Z,-0.18
2017-12-03T13:36:54.401Z,-0.17
2017-12-03T13:38:04.454Z,-0.13
2017-12-03T13:39:14.437Z,0.09
2017-12-03T13:40:23.892Z,0.18
2017-12-03T13:41:33.879Z,0.2
2017-12-03T13:42:43.869Z,-0.33
2017-12-03T13:43:53.919Z,-0.6
2017-12-03T13:45:03.904Z,-0.82
2017-12-03T13:46:13.904Z,-1.17
2017-12-03T13:47:23.884Z,-1.29
2017-12-03T13:48:33.887Z,-1.4
2017-12-03T13:49:43.448Z,-1.39
2017-12-03T13:50:53.132Z,-1.42
2017-12-03T13:52:03.119Z,-1.42
2017-12-03T13:53:12.844Z,-1.46
2017-12-03T13:54:22.836Z,-1.57
2017-12-03T13:55:32.818Z,-1.68
2017-12-03T13:56:42.796Z,-1.76
2017-12-03T13:57:52.780Z,-1.74
2017-12-03T13:59:02.496Z,-1.93
2017-12-03T14:00:12.488Z,-1.96
2017-12-03T14:01:22.201Z,-1.96
2017-12-03T14:02:32.183Z,-2.08
2017-12-03T14:03:42.165Z,-2.14
2017-12-03T14:04:52.153Z,-2.29
2017-12-03T14:06:01.914Z,-2.33
2017-12-03T14:07:11.671Z,-2.44
2017-12-03T14:08:21.389Z,-2.37
2017-12-03T14:09:31.370Z,-2.51
2017-12-03T14:10:41.349Z,-2.54
2017-12-03T14:11:51.325Z,-2.57
2017-12-03T14:13:01.307Z,-2.69
2017-12-03T14:14:11.292Z,-2.78
2017-12-03T14:15:21.012Z,-2.84
2017-12-03T14:16:30.988Z,-2.94
2017-12-03T14:17:40.709Z,-2.99
2017-12-03T14:18:50.688Z,-2.99
2017-12-03T14:20:00.690Z,-2.65
2017-12-03T14:21:10.407Z,-2.54
2017-12-03T14:22:20.387Z,-2.39
2017-12-03T14:23:30.372Z,-2.26
2017-12-03T14:24:40.358Z,-2.22
2017-12-03T14:25:50.343Z,-2.02
2017-12-03T14:27:00.330Z,-1.9
2017-12-03T14:28:10.046Z,-1.78
2017-12-03T14:29:20.034Z,-1.71
2017-12-03T14:30:30.014Z,-1.64
2017-12-03T14:31:39.994Z,-1.46
2017-12-03T14:32:49.981Z,-1.46
2017-12-03T14:33:59.700Z,-1.4
2017-12-03T14:35:09.688Z,-1.25
2017-12-03T14:36:19.671Z,-1.3
2017-12-03T14:37:29.651Z,-1.15
2017-12-03T14:38:39.631Z,-1.14
2017-12-03T14:39:49.621Z,-1.01
2017-12-03T14:40:59.601Z,-0.94
2017-12-03T14:42:09.323Z,-0.91
2017-12-03T14:43:19.323Z,-0.77
2017-12-03T14:44:29.304Z,-0.72
2017-12-03T14:45:39.290Z,-0.64
2017-12-03T14:46:49.009Z,-0.57
2017-12-03T14:47:58.989Z,-0.57
2017-12-03T14:49:08.980Z,-0.54
2017-12-03T14:50:18.958Z,-0.45
2017-12-03T14:51:28.945Z,-0.41
2017-12-03T14:52:38.657Z,-0.45
2017-12-03T14:53:48.638Z,-0.33
2017-12-03T14:54:58.621Z,-0.38
2017-12-03T14:56:08.604Z,-0.39
2017-12-03T14:57:18.585Z,-0.38
2017-12-03T14:58:28.566Z,-0.35
2017-12-03T14:59:38.550Z,-0.27
2017-12-03T15:00:48.267Z,-0.35
2017-12-03T15:01:58.250Z,-0.23
2017-12-03T15:03:08.230Z,-0.13
2017-12-03T15:04:18.216Z,-0.2
2017-12-03T15:05:28.212Z,-0.21
2017-12-03T15:06:37.929Z,-0.24
2017-12-03T15:07:48.216Z,-0.28
2017-12-03T15:08:57.929Z,-0.21
2017-12-03T15:10:07.381Z,-0.3
2017-12-03T15:11:17.364Z,-0.3